createdAt,value
2022-09-04T00:00:14.384Z,16.00
2022-09-04T00:02:53.038Z,16.00
2022-09-04T00:05:26.635Z,16.00
2022-09-04T00:08:06.490Z,16.00
2022-09-04T00:10:41.739Z,16.00
2022-09-04T00:13:15.880Z,16.00
2022-09-04T00:15:49.646Z,16.00
2022-09-04T00:18:25.336Z,16.00
2022-09-04T00:21:01.885Z,16.00
2022-09-04T00:23:38.896Z,16.00
2022-09-04T00:26:14.589Z,15.90
2022-09-04T00:28:49.189Z,15.90
2022-09-04T00:31:26.922Z,15.80
2022-09-04T00:34:07.327Z,15.80
2022-09-04T00:36:39.910Z,15.80
2022-09-04T00:39:13.772Z,15.80
2022-09-04T00:41:55.773Z,15.70
2022-09-04T00:44:48.547Z,15.70
2022-09-04T00:47:45.846Z,15.70
2022-09-04T00:50:30.574Z,15.60
2022-09-04T00:53:31.307Z,15.50
2022-09-04T00:56:26.911Z,15.50
2022-09-04T00:59:09.824Z,15.40
2022-09-04T01:01:38.825Z,15.40
2022-09-04T01:04:36.133Z,15.30
2022-09-04T01:07:14.645Z,15.30
2022-09-04T01:10:08.550Z,15.20
2022-09-04T01:12:41.296Z,15.20
2022-09-04T01:15:16.063Z,15.10
2022-09-04T01:17:53.906Z,15.00
2022-09-04T01:20:54.069Z,15.00
2022-09-04T01:23:46.327Z,14.90
2022-09-04T01:26:23.761Z,14.90
2022-09-04T01:29:07.314Z,14.90
2022-09-04T01:31:45.540Z,14.90
2022-09-04T01:34:36.126Z,14.80
2022-09-04T01:37:18.869Z,14.80
2022-09-04T01:39:57.671Z,14.80
2022-09-04T01:42:34.071Z,14.70
2022-09-04T01:45:02.088Z,14.70
2022-09-04T01:47:36.979Z,14.60
2022-09-04T01:50:11.209Z,14.60
2022-09-04T01:52:48.174Z,14.60
2022-09-04T01:55:24.060Z,14.50
2022-09-04T01:58:12.588Z,14.50
2022-09-04T02:00:51.153Z,14.50
2022-09-04T02:03:27.642Z,14.40
2022-09-04T02:06:05.970Z,14.30
2022-09-04T02:08:55.239Z,14.30
2022-09-04T02:11:27.884Z,14.30
2022-09-04T02:14:11.064Z,14.20
2022-09-04T02:16:46.834Z,14.20
2022-09-04T02:19:31.927Z,14.10
2022-09-04T02:22:08.498Z,14.00
2022-09-04T02:24:44.636Z,13.90
2022-09-04T02:27:17.197Z,13.80
2022-09-04T02:29:52.816Z,13.70
2022-09-04T02:32:25.992Z,13.70
2022-09-04T02:35:03.679Z,13.70
2022-09-04T02:37:36.738Z,13.60
2022-09-04T02:40:16.207Z,13.60
2022-09-04T02:42:57.836Z,13.60
2022-09-04T02:45:35.580Z,13.50
2022-09-04T02:48:13.722Z,13.50
2022-09-04T02:50:57.329Z,13.50
2022-09-04T02:53:31.719Z,13.50
2022-09-04T02:56:20.880Z,13.40
2022-09-04T02:59:03.381Z,13.40
2022-09-04T03:01:41.203Z,13.40
2022-09-04T03:04:17.149Z,13.40
2022-09-04T03:06:52.148Z,13.40
2022-09-04T03:09:25.942Z,13.40
2022-09-04T03:12:00.646Z,13.40
2022-09-04T03:14:35.898Z,13.40
2022-09-04T03:17:13.005Z,13.40
2022-09-04T03:19:47.527Z,13.40
2022-09-04T03:22:24.698Z,13.40
2022-09-04T03:25:10.703Z,13.40
2022-09-04T03:27:39.248Z,13.40
2022-09-04T03:30:10.424Z,13.40
2022-09-04T03:32:52.984Z,13.30
2022-09-04T03:35:27.123Z,13.30
2022-09-04T03:38:09.979Z,13.30
2022-09-04T03:40:42.931Z,13.30
2022-09-04T03:43:39.596Z,13.30
2022-09-04T03:46:19.977Z,13.30
2022-09-04T03:48:58.690Z,13.30
2022-09-04T03:51:39.856Z,13.30
2022-09-04T03:54:17.530Z,13.30
2022-09-04T03:56:56.926Z,13.30
2022-09-04T03:59:42.337Z,13.30
2022-09-04T04:02:23.120Z,13.30
2022-09-04T04:05:17.962Z,13.20
2022-09-04T04:08:04.429Z,13.20
2022-09-04T04:10:46.621Z,13.20
2022-09-04T04:13:42.861Z,13.20
2022-09-04T04:16:31.246Z,13.20
2022-09-04T04:19:19.403Z,13.20
2022-09-04T04:22:04.143Z,13.20
2022-09-04T04:25:01.156Z,13.20
2022-09-04T04:27:36.645Z,13.20
2022-09-04T04:30:08.400Z,13.20
2022-09-04T04:32:56.285Z,13.20
2022-09-04T04:35:36.612Z,13.20
2022-09-04T04:38:18.636Z,13.20
2022-09-04T04:41:17.532Z,13.10
2022-09-04T04:43:59.229Z,13.10
2022-09-04T04:46:37.268Z,13.20
2022-09-04T04:49:34.258Z,13.20
2022-09-04T04:52:33.681Z,13.20
2022-09-04T04:55:31.061Z,13.30
2022-09-04T04:58:38.559Z,13.30
2022-09-04T05:01:11.913Z,13.30
2022-09-04T05:03:54.842Z,13.30
2022-09-04T05:06:36.129Z,13.30
2022-09-04T05:09:14.955Z,13.40
2022-09-04T05:11:54.737Z,13.40
2022-09-04T05:14:34.010Z,13.40
2022-09-04T05:17:12.696Z,13.50
2022-09-04T05:19:48.250Z,13.50
2022-09-04T05:22:25.531Z,13.60
2022-09-04T05:25:03.970Z,13.70
2022-09-04T05:27:57.119Z,13.70
2022-09-04T05:30:33.963Z,13.80
2022-09-04T05:33:09.560Z,13.90
2022-09-04T05:35:45.412Z,13.90
2022-09-04T05:38:22.613Z,13.90
2022-09-04T05:41:05.321Z,14.00
2022-09-04T05:44:01.469Z,14.10
2022-09-04T05:46:46.564Z,14.20
2022-09-04T05:49:38.041Z,14.20
2022-09-04T05:52:27.270Z,14.30
2022-09-04T05:55:23.460Z,14.40
2022-09-04T05:58:02.533Z,14.40
2022-09-04T06:00:37.991Z,14.50
2022-09-04T06:03:33.992Z,14.60
2022-09-04T06:06:12.269Z,14.60
2022-09-04T06:09:07.475Z,14.60
2022-09-04T06:11:51.496Z,14.60
2022-09-04T06:14:46.775Z,14.70
2022-09-04T06:17:29.501Z,14.70
2022-09-04T06:20:10.966Z,14.80
2022-09-04T06:23:05.194Z,14.90
2022-09-04T06:26:00.904Z,15.00
2022-09-04T06:28:43.377Z,15.20
2022-09-04T06:31:33.015Z,15.20
2022-09-04T06:34:12.426Z,15.30
2022-09-04T06:36:55.562Z,15.40
2022-09-04T06:39:46.190Z,15.50
2022-09-04T06:42:32.642Z,15.60
2022-09-04T06:45:20.558Z,15.70
2022-09-04T06:48:04.436Z,15.80
2022-09-04T06:50:45.360Z,15.90
2022-09-04T06:53:23.092Z,15.90
2022-09-04T06:56:04.412Z,16.00
2022-09-04T06:59:15.932Z,16.10
2022-09-04T07:02:01.202Z,16.20
2022-09-04T07:04:44.986Z,16.30
2022-09-04T07:07:23.666Z,16.40
2022-09-04T07:10:01.302Z,16.60
2022-09-04T07:12:54.520Z,16.70
2022-09-04T07:15:46.152Z,16.90
2022-09-04T07:18:24.671Z,17.00
2022-09-04T07:21:04.289Z,17.10
2022-09-04T07:23:45.025Z,17.20
2022-09-04T07:26:28.599Z,17.30
2022-09-04T07:29:12.465Z,17.40
2022-09-04T07:31:45.154Z,17.50
2022-09-04T07:34:22.438Z,17.40
2022-09-04T07:36:57.180Z,17.50
2022-09-04T07:39:33.096Z,17.60
2022-09-04T07:42:05.962Z,17.60
2022-09-04T07:44:42.139Z,17.70
2022-09-04T07:47:18.379Z,17.80
2022-09-04T07:49:56.837Z,17.90
2022-09-04T07:52:39.408Z,17.90
2022-09-04T07:55:24.848Z,17.90
2022-09-04T07:58:18.811Z,18.00
2022-09-04T08:01:01.585Z,18.00
2022-09-04T08:03:49.183Z,18.20
2022-09-04T08:06:28.609Z,18.30
2022-09-04T08:09:18.405Z,18.40
2022-09-04T08:12:10.547Z,18.40
2022-09-04T08:14:53.697Z,18.50
2022-09-04T08:17:41.455Z,18.60
2022-09-04T08:20:17.576Z,18.70
2022-09-04T08:22:54.026Z,18.70
2022-09-04T08:25:28.995Z,18.90
2022-09-04T08:28:17.381Z,19.00
2022-09-04T08:30:54.659Z,19.00
2022-09-04T08:33:40.967Z,19.00
2022-09-04T08:36:12.281Z,19.00
2022-09-04T08:38:56.587Z,19.00
2022-09-04T08:42:14.686Z,19.00
2022-09-04T08:45:42.446Z,19.00
2022-09-04T08:48:32.430Z,19.00
2022-09-04T08:51:41.449Z,19.10
2022-09-04T08:54:37.765Z,19.20
2022-09-04T08:57:40.364Z,19.20
2022-09-04T09:00:11.022Z,19.40
2022-09-04T09:03:12.978Z,19.50
2022-09-04T09:06:06.721Z,19.70
2022-09-04T09:09:23.650Z,19.80
2022-09-04T09:12:40.932Z,19.90
2022-09-04T09:15:39.989Z,20.00
2022-09-04T09:18:31.379Z,20.00
2022-09-04T09:21:08.058Z,20.00
2022-09-04T09:24:23.819Z,20.10
2022-09-04T09:27:04.601Z,20.20
2022-09-04T09:30:07.392Z,20.30
2022-09-04T09:33:12.971Z,20.30
2022-09-04T09:36:08.237Z,20.40
2022-09-04T09:38:57.630Z,20.50
2022-09-04T09:42:00.865Z,20.60
2022-09-04T09:45:08.743Z,20.80
2022-09-04T09:48:20.502Z,21.00
2022-09-04T09:51:33.521Z,21.20
2022-09-04T09:54:25.282Z,21.30
2022-09-04T09:57:33.507Z,21.50
2022-09-04T10:00:14.778Z,21.60
2022-09-04T10:03:15.649Z,21.80
2022-09-04T10:06:14.066Z,21.90
2022-09-04T10:09:23.206Z,22.10
2022-09-04T10:12:35.647Z,22.10
2022-09-04T10:15:26.541Z,22.10
2022-09-04T10:18:33.816Z,22.10
2022-09-04T10:21:48.029Z,22.00
2022-09-04T10:24:46.867Z,21.90
2022-09-04T10:28:00.554Z,21.90
2022-09-04T10:30:33.461Z,22.00
2022-09-04T10:33:32.670Z,22.00
2022-09-04T10:36:14.069Z,21.90
2022-09-04T10:39:09.465Z,22.00
2022-09-04T10:42:02.925Z,21.80
2022-09-04T10:44:45.281Z,21.80
2022-09-04T10:47:26.593Z,21.90
2022-09-04T10:50:24.129Z,22.00
2022-09-04T10:53:21.092Z,22.10
2022-09-04T10:56:12.078Z,22.10
2022-09-04T10:59:21.198Z,22.10
2022-09-04T11:02:23.337Z,22.10
2022-09-04T11:05:20.400Z,22.20
2022-09-04T11:08:22.068Z,22.20
2022-09-04T11:11:12.179Z,22.30
2022-09-04T11:14:08.411Z,22.50
2022-09-04T11:17:13.122Z,22.60
2022-09-04T11:20:17.575Z,22.60
2022-09-04T11:23:19.107Z,22.70
2022-09-04T11:26:22.923Z,22.80
2022-09-04T11:29:31.068Z,23.00
2022-09-04T11:32:29.950Z,23.10
2022-09-04T11:35:36.340Z,23.00
2022-09-04T11:38:28.458Z,23.10
2022-09-04T11:41:36.345Z,23.00
2022-09-04T11:44:25.188Z,23.00
2022-09-04T11:47:13.234Z,23.20
2022-09-04T11:49:58.599Z,23.30
2022-09-04T11:52:35.710Z,23.50
2022-09-04T11:55:19.241Z,23.60
2022-09-04T11:58:23.535Z,23.80
2022-09-04T12:01:04.157Z,23.90
2022-09-04T12:03:54.379Z,24.00
2022-09-04T12:06:35.043Z,24.00
2022-09-04T12:09:23.755Z,24.00
2022-09-04T12:12:29.617Z,24.00
2022-09-04T12:15:22.354Z,24.20
2022-09-04T12:18:25.655Z,24.20
2022-09-04T12:21:27.713Z,24.40
2022-09-04T12:24:46.234Z,24.50
2022-09-04T12:28:10.410Z,24.60
2022-09-04T12:30:51.683Z,24.70
2022-09-04T12:33:43.554Z,24.80
2022-09-04T12:36:59.431Z,24.80
2022-09-04T12:39:52.564Z,24.90
2022-09-04T12:42:29.190Z,25.00
2022-09-04T12:45:09.306Z,24.90
2022-09-04T12:47:55.507Z,25.00
2022-09-04T12:50:35.259Z,25.00
2022-09-04T12:53:26.539Z,25.10
2022-09-04T12:56:03.242Z,25.10
2022-09-04T12:58:44.928Z,25.20
2022-09-04T13:01:17.298Z,25.20
2022-09-04T13:03:54.347Z,25.30
2022-09-04T13:06:33.182Z,25.30
2022-09-04T13:09:13.668Z,25.40
2022-09-04T13:11:52.389Z,25.50
2022-09-04T13:14:42.015Z,25.60
2022-09-04T13:17:19.831Z,25.80
2022-09-04T13:19:59.048Z,25.90
2022-09-04T13:22:36.102Z,26.00
2022-09-04T13:25:12.169Z,26.20
2022-09-04T13:27:50.363Z,26.50
2022-09-04T13:30:24.452Z,27.30
2022-09-04T13:33:11.169Z,28.70
2022-09-04T13:35:59.982Z,30.40
2022-09-04T13:38:57.388Z,31.30
2022-09-04T13:41:50.901Z,31.80
2022-09-04T13:44:40.781Z,32.10
2022-09-04T13:47:14.984Z,32.60
2022-09-04T13:49:47.905Z,32.90
2022-09-04T13:52:23.559Z,33.70
2022-09-04T13:55:00.221Z,33.70
2022-09-04T13:57:31.175Z,33.00
2022-09-04T14:00:07.289Z,32.20
2022-09-04T14:02:39.125Z,31.50
2022-09-04T14:05:11.459Z,30.90
2022-09-04T14:07:44.883Z,30.20
2022-09-04T14:10:17.357Z,29.80
2022-09-04T14:13:14.662Z,29.80
2022-09-04T14:16:02.501Z,30.20
2022-09-04T14:18:57.106Z,31.20
2022-09-04T14:21:47.565Z,32.00
2022-09-04T14:24:21.449Z,31.80
2022-09-04T14:26:56.619Z,31.60
2022-09-04T14:29:36.204Z,31.10
2022-09-04T14:32:18.641Z,30.40
2022-09-04T14:35:02.354Z,29.80
2022-09-04T14:37:59.239Z,29.10
2022-09-04T14:40:31.331Z,28.70
2022-09-04T14:43:10.688Z,28.60
2022-09-04T14:46:00.046Z,28.70
2022-09-04T14:48:29.024Z,29.30
2022-09-04T14:51:11.394Z,29.50
2022-09-04T14:53:39.496Z,29.40
2022-09-04T14:56:20.892Z,28.90
2022-09-04T14:58:54.190Z,28.30
2022-09-04T15:01:24.570Z,27.90
2022-09-04T15:03:59.114Z,27.60
2022-09-04T15:06:44.600Z,27.30
2022-09-04T15:09:23.551Z,27.10
2022-09-04T15:12:09.030Z,26.80
2022-09-04T15:14:48.637Z,26.80
2022-09-04T15:17:28.543Z,26.80
2022-09-04T15:20:03.157Z,26.90
2022-09-04T15:22:38.315Z,27.30
2022-09-04T15:25:09.718Z,27.80
2022-09-04T15:27:47.460Z,27.90
2022-09-04T15:30:21.810Z,27.80
2022-09-04T15:32:51.816Z,27.60
2022-09-04T15:35:26.310Z,27.50
2022-09-04T15:38:12.717Z,27.50
2022-09-04T15:41:06.089Z,27.40
2022-09-04T15:43:42.574Z,27.30
2022-09-04T15:46:18.647Z,27.20
2022-09-04T15:48:53.489Z,27.20
2022-09-04T15:51:28.220Z,27.40
2022-09-04T15:54:22.144Z,27.90
2022-09-04T15:57:03.069Z,28.50
2022-09-04T15:59:45.419Z,29.10
2022-09-04T16:02:36.358Z,29.50
2022-09-04T16:05:18.569Z,29.90
2022-09-04T16:08:03.880Z,30.20
2022-09-04T16:10:47.731Z,30.30
2022-09-04T16:13:35.812Z,30.50
2022-09-04T16:16:12.207Z,30.60
2022-09-04T16:18:52.188Z,30.80
2022-09-04T16:21:32.343Z,30.80
2022-09-04T16:24:09.107Z,30.80
2022-09-04T16:26:39.323Z,30.70
2022-09-04T16:29:15.888Z,30.70
2022-09-04T16:31:53.112Z,30.70
2022-09-04T16:34:24.474Z,30.70
2022-09-04T16:37:01.999Z,30.60
2022-09-04T16:39:39.981Z,30.60
2022-09-04T16:42:20.596Z,30.60
2022-09-04T16:44:54.250Z,30.50
2022-09-04T16:47:29.137Z,30.40
2022-09-04T16:50:04.005Z,30.40
2022-09-04T16:52:47.244Z,30.30
2022-09-04T16:55:24.743Z,30.20
2022-09-04T16:58:08.776Z,30.10
2022-09-04T17:01:13.614Z,30.00
2022-09-04T17:03:51.976Z,29.80
2022-09-04T17:06:29.380Z,29.50
2022-09-04T17:09:06.205Z,29.20
2022-09-04T17:11:44.092Z,28.70
2022-09-04T17:14:31.971Z,28.30
2022-09-04T17:17:12.462Z,27.90
2022-09-04T17:20:07.613Z,27.60
2022-09-04T17:29:01.004Z,27.40
2022-09-04T17:29:07.535Z,27.30
2022-09-04T17:29:22.315Z,27.10
2022-09-04T17:31:51.877Z,26.80
2022-09-04T17:40:36.171Z,26.50
2022-09-04T17:40:50.300Z,26.30
2022-09-04T17:41:33.352Z,26.00
2022-09-04T17:43:32.964Z,25.70
2022-09-04T17:46:15.846Z,25.30
2022-09-04T17:48:46.948Z,25.00
2022-09-04T17:51:21.458Z,24.70
2022-09-04T17:53:52.693Z,24.40
2022-09-04T17:56:25.719Z,24.10
2022-09-04T17:59:01.639Z,23.80
2022-09-04T18:01:33.834Z,23.50
2022-09-04T18:04:26.167Z,23.30
2022-09-04T18:07:01.063Z,23.10
2022-09-04T18:10:00.265Z,22.80
2022-09-04T18:12:35.204Z,22.60
2022-09-04T18:15:32.403Z,22.30
2022-09-04T18:18:09.457Z,22.10
2022-09-04T18:20:45.057Z,21.80
2022-09-04T18:23:51.423Z,21.60
2022-09-04T18:26:40.737Z,21.40
2022-09-04T18:31:05.895Z,21.30
2022-09-04T18:37:10.498Z,21.10
2022-09-04T18:37:23.208Z,20.90
2022-09-04T18:38:20.819Z,20.80
2022-09-04T18:44:00.855Z,20.70
2022-09-04T18:50:31.589Z,20.60
2022-09-04T18:50:36.448Z,20.30
2022-09-04T18:50:47.268Z,20.50
2022-09-04T18:52:19.721Z,20.20
2022-09-04T18:54:54.048Z,20.10
2022-09-04T18:57:28.056Z,20.00
2022-09-04T19:00:08.770Z,19.90
2022-09-04T19:02:52.990Z,19.90
2022-09-04T19:05:24.243Z,19.80
2022-09-04T19:07:56.701Z,19.70
2022-09-04T19:10:29.224Z,19.60
2022-09-04T19:13:03.061Z,19.60
2022-09-04T19:16:01.454Z,19.60
2022-09-04T19:18:43.832Z,19.50
2022-09-04T19:21:33.890Z,19.40
2022-09-04T19:24:21.418Z,19.30
2022-09-04T19:27:25.048Z,19.30
2022-09-04T19:30:18.681Z,19.20
2022-09-04T19:33:12.417Z,19.10
2022-09-04T19:35:47.913Z,19.00
2022-09-04T19:45:56.333Z,18.90
2022-09-04T19:46:03.817Z,18.90
2022-09-04T19:46:25.876Z,18.80
2022-09-04T19:47:28.742Z,18.80
2022-09-04T19:53:22.273Z,18.70
2022-09-04T19:53:30.286Z,18.60
2022-09-04T19:55:47.621Z,18.60
2022-09-04T19:58:19.317Z,18.50
2022-09-04T20:00:56.216Z,18.50
2022-09-04T20:03:30.884Z,18.50
2022-09-04T20:06:20.033Z,18.40
2022-09-04T20:08:55.872Z,18.30
2022-09-04T20:11:34.955Z,18.30
2022-09-04T20:14:14.477Z,18.20
2022-09-04T20:16:55.150Z,18.10
2022-09-04T20:19:28.883Z,18.10
2022-09-04T20:22:01.801Z,18.00
2022-09-04T20:24:39.591Z,17.90
2022-09-04T20:27:16.002Z,17.90
2022-09-04T20:29:54.573Z,17.80
2022-09-04T20:32:28.977Z,17.80
2022-09-04T20:35:14.082Z,17.70
2022-09-04T20:37:51.595Z,17.60
2022-09-04T20:40:32.930Z,17.50
2022-09-04T20:43:22.468Z,17.50
2022-09-04T20:49:09.521Z,17.50
2022-09-04T20:52:50.730Z,17.40
2022-09-04T20:52:55.658Z,17.40
2022-09-04T20:55:02.084Z,17.40
2022-09-04T21:02:36.159Z,17.30
2022-09-04T21:03:15.015Z,17.30
2022-09-04T21:03:34.248Z,17.30
2022-09-04T21:06:17.736Z,17.30
2022-09-04T21:08:54.307Z,17.30
2022-09-04T21:11:41.349Z,17.30
2022-09-04T21:14:16.568Z,17.30
2022-09-04T21:17:33.784Z,17.20
2022-09-04T21:20:30.940Z,17.20
2022-09-04T21:23:20.219Z,17.20
2022-09-04T21:25:59.501Z,17.20
2022-09-04T21:28:45.558Z,17.20
2022-09-04T21:31:23.497Z,17.10
2022-09-04T21:34:05.733Z,17.10
2022-09-04T21:36:40.851Z,17.00
2022-09-04T21:39:54.092Z,17.00
2022-09-04T21:42:46.054Z,16.90
2022-09-04T21:45:37.762Z,16.80
2022-09-04T21:48:35.794Z,16.80
2022-09-04T21:51:33.210Z,16.70
2022-09-04T21:54:38.120Z,16.60
2022-09-04T22:02:28.188Z,16.50
2022-09-04T22:02:35.907Z,16.40
2022-09-04T22:04:02.326Z,16.40
2022-09-04T22:07:05.253Z,16.30
2022-09-04T22:13:30.304Z,16.30
2022-09-04T22:13:39.968Z,16.30
2022-09-04T22:15:41.615Z,16.30
2022-09-04T22:18:27.822Z,16.20
2022-09-04T22:21:12.003Z,16.20
2022-09-04T22:24:16.794Z,16.10
2022-09-04T22:27:14.297Z,16.10
2022-09-04T22:29:54.004Z,16.10
2022-09-04T22:33:02.394Z,16.00
2022-09-04T22:35:55.197Z,16.00
2022-09-04T22:38:37.077Z,16.00
2022-09-04T22:41:32.295Z,16.00
2022-09-04T22:44:09.491Z,16.00
2022-09-04T22:47:21.380Z,16.00
2022-09-04T22:50:18.495Z,15.90
2022-09-04T22:53:08.957Z,15.80
2022-09-04T22:56:23.613Z,15.80
2022-09-04T22:59:26.277Z,15.70
2022-09-04T23:02:18.398Z,15.70
2022-09-04T23:05:05.055Z,15.60
2022-09-04T23:13:54.249Z,15.50
2022-09-04T23:14:02.318Z,15.50
2022-09-04T23:14:07.700Z,15.40
2022-09-04T23:17:09.293Z,15.40
2022-09-04T23:23:41.534Z,15.40
2022-09-04T23:26:53.818Z,15.40
2022-09-04T23:27:00.274Z,15.40
2022-09-04T23:30:05.284Z,15.40
2022-09-04T23:33:00.431Z,15.30
2022-09-04T23:35:41.405Z,15.30
2022-09-04T23:38:32.332Z,15.30
2022-09-04T23:41:08.915Z,15.30
2022-09-04T23:44:06.011Z,15.20
2022-09-04T23:47:05.709Z,15.20
2022-09-04T23:49:45.979Z,15.20
2022-09-04T23:52:27.120Z,15.20
2022-09-04T23:55:10.407Z,15.20
2022-09-04T23:57:49.456Z,15.20
